Search for airport 
image banner adimage banner adimage banner ad
image banner ad

KPTW - Heritage Field

Located in Pottstown, United States

ICAO - PTW, IATA -

Data provided by Airmate  

General information

Coordinates: N40°14'22" W75°33'24"
Elevation is 308 feet MSL.
Magnetic variation is -12° East
View others Airports in Pennsylvania

Operational data

Special qualification required
Current time UTC:
Current local time:
Weather
METAR: KPTW 291554Z AUTO 19006KT 10SM BKN022 OVC049 24/19 A2999 RMK AO2 SLP150 T02440194 $
View NOTAMs / SUP AIP / TFR affecting this airport [VIEW]
Communications frequencies: [VIEW]

Runways:

RWY identifierQFULength (ft)Width (ft)SurfaceLDA (ft)
1084°337175ASPH
28264°337175ASPH

Airport contact information

Address: Pottstown United States

Other aviation service providers

Flight schools

Limerick Flight Center / Fare Share Ltd

Limerick Flight Center / Fare Share Ltd
winneellis@comcast.net+1(610)495-6366

Satellite view of KPTW